This is the latest recevied weather packets stored in our database for station/object KD8DNO-13. If no packets are shown the sender has not sent any weather packets the latest 10 day(s).
| Time | Temp. | Humidity | Pressure | Rain* | Wind** | Luminosity | Snow |
|---|---|---|---|---|---|---|---|
| 1788384783 | 33.89° C | 51% | 1017.6 hPa | 0 mm | - | - | - |
| 1788384483 | 33.89° C | 53% | 1017.6 hPa | 0 mm | - | - | - |
| 1788384203 | 33.89° C | 53% | 1017.9 hPa | 0 mm | - | - | - |
| 1788383883 | 33.89° C | 52% | 1017.9 hPa | 0 mm | - | - | - |
| 1788383583 | 33.89° C | 52% | 1017.9 hPa | 0 mm | - | - | - |
| 1788383284 | 33.33° C | 53% | 1017.9 hPa | 0 mm | - | - | - |
| 1788382984 | 33.89° C | 53% | 1017.9 hPa | 0 mm | - | - | - |
| 1788382684 | 33.89° C | 57% | 1017.9 hPa | 0 mm | - | - | - |
| 1788382383 | 33.89° C | 54% | 1017.9 hPa | 0 mm | - | - | - |
| 1788382083 | 33.33° C | 54% | 1017.9 hPa | 0 mm | - | - | - |
| 1788381783 | 33.89° C | 52% | 1017.9 hPa | 0 mm | - | - | - |
| 1788381483 | 34.44° C | 53% | 1018.2 hPa | 0 mm | - | - | - |
| 1788381184 | 35° C | 52% | 1018.2 hPa | 0 mm | - | - | - |
| 1788380883 | 34.44° C | 52% | 1018.2 hPa | 0 mm | - | - | - |
| 1788380583 | 34.44° C | 53% | 1018.2 hPa | 0 mm | - | - | - |
| 1788380283 | 34.44° C | 53% | 1018.2 hPa | 0 mm | - | - | - |
| 1788379983 | 34.44° C | 53% | 1018.2 hPa | 0 mm | - | - | - |
| 1788379685 | 33.89° C | 55% | 1018.2 hPa | 0 mm | - | - | - |
| 1788379383 | 33.33° C | 55% | 1018.2 hPa | 0 mm | - | - | - |
| 1788379083 | 33.89° C | 55% | 1018.2 hPa | 0 mm | - | - | - |
| 1788378783 | 34.44° C | 55% | 1018.2 hPa | 0 mm | - | - | - |
| 1788378483 | 33.33° C | 57% | 1018.6 hPa | 0 mm | - | - | - |
| 1788378183 | 31.67° C | 64% | 1018.6 hPa | 0 mm | - | - | - |
| 1788377883 | 33.33° C | 56% | 1018.6 hPa | 0 mm | - | - | - |
| 1788377583 | 33.89° C | 56% | 1018.6 hPa | 0 mm | - | - | - |
* Rain latest hour (hover to see other rain measurements)
** Current wind speed in m/s (hover to see current wind gust speed)